Погода Застариньена неделю

Брестская область, Белоруссия

26 мая-01 июня
  • 26мая
    Сегодня
    +13°
    +25°
    Практически безоблачно
    ВремяПогодаТемператураВлажностьДавлениеВетер, м/сВероятность осадков
    00:00Облачно с прояснениями+17°C70 %742 мм3.6 м/с2 %
    03:00Небольшая облачность+15°C54 %742 мм4.1 м/с2 %
    06:00Небольшая облачность+13°C62 %743 мм2.7 м/с6 %
    09:00Практически безоблачно+18°C65 %743 мм2.6 м/с2 %
    12:00Ясно и безоблачно+23°C43 %744 мм2.9 м/с2 %
    15:00Практически безоблачно+25°C39 %743 мм2.3 м/с2 %
    18:00Ясно и безоблачно+24°C38 %743 мм2.8 м/с2 %
    21:00Ясно и безоблачно+19°C59 %743 мм2.2 м/с2 %
  • 27мая
    Понедельник
    +14°
    +25°
    Практически безоблачно
    ВремяПогодаТемператураВлажностьДавлениеВетер, м/сВероятность осадков
    00:00Ясно и безоблачно+16°C65 %743 мм2.4 м/с2 %
    03:00Ясно и безоблачно+14°C68 %743 мм2.6 м/с2 %
    06:00Облачно с прояснениями+14°C69 %743 мм2.4 м/с2 %
    09:00Облачно с прояснениями+20°C55 %743 мм2.0 м/с2 %
    12:00Облачно с прояснениями+24°C41 %743 мм3.3 м/с2 %
    15:00Практически безоблачно+25°C38 %743 мм3.7 м/с2 %
    18:00Ясно и безоблачно+25°C38 %742 мм2.5 м/с1 %
    21:00Ясно и безоблачно+20°C62 %741 мм2.4 м/с2 %
  • 28мая
    Вторник
    +14°
    +26°
    Практически безоблачно
    ВремяПогодаТемператураВлажностьДавлениеВетер, м/сВероятность осадков
    00:00Ясно и безоблачно+17°C67 %741 мм2.6 м/с2 %
    03:00Ясно и безоблачно+15°C70 %740 мм2.6 м/с2 %
    06:00Ясно и безоблачно+15°C77 %740 мм2.6 м/с2 %
    09:00Облачно с прояснениями+20°C68 %740 мм3.2 м/с2 %
    12:00Небольшая облачность+25°C42 %740 мм4.5 м/с2 %
    15:00Практически безоблачно+26°C35 %739 мм3.8 м/с8 %
    18:00Ясно и безоблачно+24°C36 %738 мм3.1 м/с12 %
    21:00Практически безоблачно+21°C55 %737 мм2.6 м/с3 %
  • 29мая
    Среда
    +14°
    +26°
    Ясно и безоблачно
    ВремяПогодаТемператураВлажностьДавлениеВетер, м/сВероятность осадков
    00:00Практически безоблачно+18°C53 %737 мм2.9 м/с3 %
    03:00Ясно и безоблачно+16°C62 %736 мм3.0 м/с2 %
    06:00Практически безоблачно+15°C69 %736 мм3.0 м/с2 %
    09:00Ясно и безоблачно+20°C59 %736 мм3.2 м/с2 %
    12:00Ясно и безоблачно+25°C34 %736 мм4.3 м/с3 %
    15:00Ясно и безоблачно+25°C29 %735 мм3.7 м/с17 %
    18:00Практически безоблачно+24°C32 %734 мм3.7 м/с11 %
    21:00Практически безоблачно+21°C60 %734 мм2.1 м/с2 %
  • 30мая
    Четверг
    +13°
    +25°
    Небольшая облачность
    ВремяПогодаТемператураВлажностьДавлениеВетер, м/сВероятность осадков
    00:00Облачно с прояснениями+18°C48 %733 мм3.4 м/с3 %
    03:00Облачно с прояснениями+15°C61 %733 мм2.5 м/с4 %
    06:00Облачно с прояснениями+15°C70 %732 мм1.4 м/с2 %
    09:00Облачно с прояснениями+19°C58 %733 мм3.1 м/с3 %
    12:00Облачно с прояснениями+24°C46 %733 мм3.6 м/с15 %
    15:00Небольшая облачность+24°C45 %732 мм3.7 м/с42 %
    18:00Практически безоблачно+24°C47 %732 мм4.6 м/с47 %
    21:00Практически безоблачно+20°C64 %732 мм2.4 м/с11 %
Мы используем cookies
Соглашаюсь